sensor_id;sensor_type;location;lat;lon;timestamp;pressure;altitude;pressure_sealevel;temperature;humidity
9695;BME280;4690;52.422;13.486;2022-09-06T00:05:56;101922.72;;;18.93;39.61
9695;BME280;4690;52.422;13.486;2022-09-06T00:08:22;101921.38;;;18.95;39.83
9695;BME280;4690;52.422;13.486;2022-09-06T00:10:55;101916.56;;;18.91;40.31
9695;BME280;4690;52.422;13.486;2022-09-06T00:13:22;101918.53;;;18.90;39.43
9695;BME280;4690;52.422;13.486;2022-09-06T00:15:48;101902.94;;;18.89;40.25
9695;BME280;4690;52.422;13.486;2022-09-06T00:18:13;101912.44;;;18.93;39.82
9695;BME280;4690;52.422;13.486;2022-09-06T00:20:39;101912.38;;;18.88;39.60
9695;BME280;4690;52.422;13.486;2022-09-06T00:23:06;101917.50;;;18.79;39.94
9695;BME280;4690;52.422;13.486;2022-09-06T00:25:33;101907.25;;;18.80;40.33
9695;BME280;4690;52.422;13.486;2022-09-06T00:28:04;101904.28;;;18.70;40.32
9695;BME280;4690;52.422;13.486;2022-09-06T00:30:32;101904.53;;;18.68;40.44
9695;BME280;4690;52.422;13.486;2022-09-06T00:32:57;101907.31;;;18.68;40.46
9695;BME280;4690;52.422;13.486;2022-09-06T00:35:24;101905.28;;;18.64;40.22
9695;BME280;4690;52.422;13.486;2022-09-06T00:37:58;101908.91;;;18.64;40.43
9695;BME280;4690;52.422;13.486;2022-09-06T00:40:27;101895.28;;;18.63;40.95
9695;BME280;4690;52.422;13.486;2022-09-06T00:42:57;101910.50;;;18.60;40.74
9695;BME280;4690;52.422;13.486;2022-09-06T00:45:26;101902.66;;;18.57;40.83
9695;BME280;4690;52.422;13.486;2022-09-06T00:47:52;101905.22;;;18.58;41.05
9695;BME280;4690;52.422;13.486;2022-09-06T00:50:18;101902.06;;;18.55;40.83
9695;BME280;4690;52.422;13.486;2022-09-06T00:52:47;101904.19;;;18.48;41.55
9695;BME280;4690;52.422;13.486;2022-09-06T00:55:16;101908.03;;;18.47;41.02
9695;BME280;4690;52.422;13.486;2022-09-06T00:57:43;101909.22;;;18.34;41.24
9695;BME280;4690;52.422;13.486;2022-09-06T01:00:11;101914.00;;;18.38;41.34
9695;BME280;4690;52.422;13.486;2022-09-06T01:02:37;101912.53;;;18.48;41.06
9695;BME280;4690;52.422;13.486;2022-09-06T01:05:04;101908.31;;;18.45;41.34
9695;BME280;4690;52.422;13.486;2022-09-06T01:10:49;101913.09;;;18.33;40.88
9695;BME280;4690;52.422;13.486;2022-09-06T01:13:43;101905.75;;;18.27;41.76
9695;BME280;4690;52.422;13.486;2022-09-06T01:19:47;101908.00;;;18.13;41.59
9695;BME280;4690;52.422;13.486;2022-09-06T01:28:31;101908.50;;;18.10;41.48
9695;BME280;4690;52.422;13.486;2022-09-06T01:39:27;101905.78;;;17.98;41.46
9695;BME280;4690;52.422;13.486;2022-09-06T01:41:57;101896.06;;;17.84;41.89
9695;BME280;4690;52.422;13.486;2022-09-06T01:44:26;101894.41;;;17.83;41.97
9695;BME280;4690;52.422;13.486;2022-09-06T01:55:50;101900.53;;;17.85;42.35
9695;BME280;4690;52.422;13.486;2022-09-06T01:58:45;101897.41;;;17.81;42.63
9695;BME280;4690;52.422;13.486;2022-09-06T02:01:35;101896.81;;;17.79;42.46
9695;BME280;4690;52.422;13.486;2022-09-06T02:04:39;101886.59;;;17.80;42.16
9695;BME280;4690;52.422;13.486;2022-09-06T02:07:21;101885.50;;;17.69;42.33
9695;BME280;4690;52.422;13.486;2022-09-06T02:10:05;101885.00;;;17.72;41.96
9695;BME280;4690;52.422;13.486;2022-09-06T02:12:38;101886.84;;;17.66;41.89
9695;BME280;4690;52.422;13.486;2022-09-06T02:15:21;101883.94;;;17.61;42.27
9695;BME280;4690;52.422;13.486;2022-09-06T02:18:03;101878.78;;;17.53;42.38
9695;BME280;4690;52.422;13.486;2022-09-06T02:20:36;101877.97;;;17.53;42.68
9695;BME280;4690;52.422;13.486;2022-09-06T02:23:06;101880.84;;;17.58;42.42
9695;BME280;4690;52.422;13.486;2022-09-06T02:25:37;101883.47;;;17.64;42.33
9695;BME280;4690;52.422;13.486;2022-09-06T02:28:06;101885.06;;;17.60;42.60
9695;BME280;4690;52.422;13.486;2022-09-06T02:30:42;101883.84;;;17.56;42.69
9695;BME280;4690;52.422;13.486;2022-09-06T02:33:17;101883.63;;;17.58;42.54
9695;BME280;4690;52.422;13.486;2022-09-06T02:35:51;101878.00;;;17.41;43.24
9695;BME280;4690;52.422;13.486;2022-09-06T02:38:23;101874.59;;;17.51;43.32
9695;BME280;4690;52.422;13.486;2022-09-06T02:40:52;101886.97;;;17.60;43.37
9695;BME280;4690;52.422;13.486;2022-09-06T02:43:19;101887.44;;;17.57;43.69
9695;BME280;4690;52.422;13.486;2022-09-06T02:45:45;101876.03;;;17.53;43.80
9695;BME280;4690;52.422;13.486;2022-09-06T02:48:11;101873.91;;;17.43;43.90
9695;BME280;4690;52.422;13.486;2022-09-06T02:50:37;101872.56;;;17.46;43.71
9695;BME280;4690;52.422;13.486;2022-09-06T02:53:11;101882.78;;;17.45;43.89
9695;BME280;4690;52.422;13.486;2022-09-06T02:55:38;101885.22;;;17.42;44.09
9695;BME280;4690;52.422;13.486;2022-09-06T02:58:06;101877.00;;;17.47;44.69
9695;BME280;4690;52.422;13.486;2022-09-06T03:00:33;101873.13;;;17.48;44.76
9695;BME280;4690;52.422;13.486;2022-09-06T03:02:59;101868.94;;;17.45;44.63
9695;BME280;4690;52.422;13.486;2022-09-06T03:05:26;101876.06;;;17.41;45.42
9695;BME280;4690;52.422;13.486;2022-09-06T03:07:53;101884.03;;;17.38;45.29
9695;BME280;4690;52.422;13.486;2022-09-06T03:10:20;101880.41;;;17.25;45.41
9695;BME280;4690;52.422;13.486;2022-09-06T03:12:46;101883.41;;;17.36;45.22
9695;BME280;4690;52.422;13.486;2022-09-06T03:15:15;101881.75;;;17.35;44.77
9695;BME280;4690;52.422;13.486;2022-09-06T03:17:41;101882.59;;;17.35;45.56
9695;BME280;4690;52.422;13.486;2022-09-06T03:20:09;101883.41;;;17.36;45.58
9695;BME280;4690;52.422;13.486;2022-09-06T03:22:37;101879.47;;;17.32;45.88
9695;BME280;4690;52.422;13.486;2022-09-06T03:25:08;101878.03;;;17.29;45.71
9695;BME280;4690;52.422;13.486;2022-09-06T03:27:34;101876.69;;;17.20;46.33
9695;BME280;4690;52.422;13.486;2022-09-06T03:30:00;101878.63;;;17.19;46.35
9695;BME280;4690;52.422;13.486;2022-09-06T03:32:26;101875.50;;;17.16;46.09
9695;BME280;4690;52.422;13.486;2022-09-06T03:34:51;101876.22;;;17.23;46.21
9695;BME280;4690;52.422;13.486;2022-09-06T03:37:17;101875.13;;;17.24;46.98
9695;BME280;4690;52.422;13.486;2022-09-06T03:39:44;101870.66;;;17.23;46.90
9695;BME280;4690;52.422;13.486;2022-09-06T03:42:09;101864.44;;;17.16;47.13
9695;BME280;4690;52.422;13.486;2022-09-06T03:44:35;101868.91;;;17.05;47.13
9695;BME280;4690;52.422;13.486;2022-09-06T03:47:01;101863.69;;;17.09;47.35
9695;BME280;4690;52.422;13.486;2022-09-06T03:49:27;101860.09;;;17.08;47.73
9695;BME280;4690;52.422;13.486;2022-09-06T03:51:53;101860.72;;;16.98;47.78
9695;BME280;4690;52.422;13.486;2022-09-06T03:54:19;101861.91;;;17.02;47.62
9695;BME280;4690;52.422;13.486;2022-09-06T03:56:45;101864.94;;;17.01;47.76
9695;BME280;4690;52.422;13.486;2022-09-06T03:59:10;101864.69;;;17.02;47.45
9695;BME280;4690;52.422;13.486;2022-09-06T04:01:36;101871.56;;;16.88;47.83
9695;BME280;4690;52.422;13.486;2022-09-06T04:04:02;101867.81;;;16.83;48.24
9695;BME280;4690;52.422;13.486;2022-09-06T04:06:27;101870.59;;;16.83;48.61
9695;BME280;4690;52.422;13.486;2022-09-06T04:08:53;101867.53;;;16.72;48.38
9695;BME280;4690;52.422;13.486;2022-09-06T04:11:19;101861.69;;;16.80;48.27
9695;BME280;4690;52.422;13.486;2022-09-06T04:13:45;101865.91;;;16.83;48.39
9695;BME280;4690;52.422;13.486;2022-09-06T04:16:10;101859.25;;;16.72;48.24
9695;BME280;4690;52.422;13.486;2022-09-06T04:18:36;101851.81;;;16.73;48.65
9695;BME280;4690;52.422;13.486;2022-09-06T04:21:02;101851.41;;;16.69;48.75
9695;BME280;4690;52.422;13.486;2022-09-06T04:23:28;101846.84;;;16.75;48.39
9695;BME280;4690;52.422;13.486;2022-09-06T04:25:57;101850.94;;;16.72;49.00
9695;BME280;4690;52.422;13.486;2022-09-06T04:28:23;101848.94;;;16.79;48.92
9695;BME280;4690;52.422;13.486;2022-09-06T04:31:00;101844.50;;;16.78;48.99
9695;BME280;4690;52.422;13.486;2022-09-06T04:33:28;101844.34;;;16.73;48.93
9695;BME280;4690;52.422;13.486;2022-09-06T04:35:57;101847.22;;;16.67;49.15
9695;BME280;4690;52.422;13.486;2022-09-06T04:38:25;101844.09;;;16.63;49.37
9695;BME280;4690;52.422;13.486;2022-09-06T04:40:51;101846.38;;;16.66;49.48
9695;BME280;4690;52.422;13.486;2022-09-06T04:43:17;101842.63;;;16.72;49.45
9695;BME280;4690;52.422;13.486;2022-09-06T04:45:44;101842.75;;;16.66;49.52
9695;BME280;4690;52.422;13.486;2022-09-06T04:48:10;101846.38;;;16.66;49.80
9695;BME280;4690;52.422;13.486;2022-09-06T04:50:36;101844.69;;;16.65;49.88
9695;BME280;4690;52.422;13.486;2022-09-06T04:53:03;101838.44;;;16.70;50.22
9695;BME280;4690;52.422;13.486;2022-09-06T04:55:29;101842.63;;;16.72;49.69
9695;BME280;4690;52.422;13.486;2022-09-06T04:57:57;101838.69;;;16.68;50.05
9695;BME280;4690;52.422;13.486;2022-09-06T05:00:26;101834.94;;;16.74;50.26
9695;BME280;4690;52.422;13.486;2022-09-06T05:02:53;101836.19;;;16.78;50.11
9695;BME280;4690;52.422;13.486;2022-09-06T05:05:20;101841.47;;;16.80;50.05
9695;BME280;4690;52.422;13.486;2022-09-06T05:07:50;101840.75;;;16.85;50.57
9695;BME280;4690;52.422;13.486;2022-09-06T05:10:15;101835.22;;;16.85;50.00
9695;BME280;4690;52.422;13.486;2022-09-06T05:12:41;101831.34;;;16.86;50.50
9695;BME280;4690;52.422;13.486;2022-09-06T05:15:08;101825.81;;;16.86;50.35
9695;BME280;4690;52.422;13.486;2022-09-06T05:17:33;101827.41;;;16.82;50.26
9695;BME280;4690;52.422;13.486;2022-09-06T05:19:59;101829.53;;;16.68;50.49
9695;BME280;4690;52.422;13.486;2022-09-06T05:22:25;101830.97;;;16.70;50.60
9695;BME280;4690;52.422;13.486;2022-09-06T05:24:50;101829.06;;;16.71;51.29
9695;BME280;4690;52.422;13.486;2022-09-06T05:27:17;101830.97;;;16.70;51.00
9695;BME280;4690;52.422;13.486;2022-09-06T05:29:42;101836.06;;;16.85;50.96
9695;BME280;4690;52.422;13.486;2022-09-06T05:32:08;101832.44;;;16.85;50.39
9695;BME280;4690;52.422;13.486;2022-09-06T05:34:33;101830.50;;;16.85;50.12
9695;BME280;4690;52.422;13.486;2022-09-06T05:36:59;101838.09;;;16.90;50.01
9695;BME280;4690;52.422;13.486;2022-09-06T05:39:25;101845.09;;;16.92;49.37
9695;BME280;4690;52.422;13.486;2022-09-06T05:41:50;101835.19;;;16.96;49.66
9695;BME280;4690;52.422;13.486;2022-09-06T05:44:16;101839.41;;;16.99;49.53
9695;BME280;4690;52.422;13.486;2022-09-06T05:46:43;101837.59;;;17.05;48.83
9695;BME280;4690;52.422;13.486;2022-09-06T05:49:11;101832.75;;;17.23;48.88
9695;BME280;4690;52.422;13.486;2022-09-06T05:51:38;101833.78;;;17.34;49.51
9695;BME280;4690;52.422;13.486;2022-09-06T05:54:04;101830.44;;;17.32;47.98
9695;BME280;4690;52.422;13.486;2022-09-06T05:56:30;101831.34;;;17.50;47.58
9695;BME280;4690;52.422;13.486;2022-09-06T05:58:56;101837.53;;;17.68;47.63
9695;BME280;4690;52.422;13.486;2022-09-06T06:01:24;101834.75;;;17.68;47.34
9695;BME280;4690;52.422;13.486;2022-09-06T06:04:02;101826.66;;;17.79;47.73
9695;BME280;4690;52.422;13.486;2022-09-06T06:06:32;101827.94;;;17.76;47.13
9695;BME280;4690;52.422;13.486;2022-09-06T06:08:58;101820.94;;;17.57;47.04
9695;BME280;4690;52.422;13.486;2022-09-06T06:11:26;101813.22;;;17.59;47.83
9695;BME280;4690;52.422;13.486;2022-09-06T06:13:52;101807.59;;;17.70;47.90
9695;BME280;4690;52.422;13.486;2022-09-06T06:16:20;101809.66;;;17.75;47.50
9695;BME280;4690;52.422;13.486;2022-09-06T06:18:47;101803.72;;;17.83;47.16
9695;BME280;4690;52.422;13.486;2022-09-06T06:23:42;101806.53;;;18.00;47.08
9695;BME280;4690;52.422;13.486;2022-09-06T06:26:11;101813.34;;;18.09;47.09
9695;BME280;4690;52.422;13.486;2022-09-06T06:28:37;101811.59;;;18.20;46.29
9695;BME280;4690;52.422;13.486;2022-09-06T06:31:05;101820.50;;;18.22;46.02
9695;BME280;4690;52.422;13.486;2022-09-06T06:33:31;101811.06;;;18.40;48.11
9695;BME280;4690;52.422;13.486;2022-09-06T06:38:40;101816.50;;;18.69;45.87
9695;BME280;4690;52.422;13.486;2022-09-06T06:41:08;101823.72;;;19.03;45.90
9695;BME280;4690;52.422;13.486;2022-09-06T06:43:35;101823.06;;;19.40;43.77
9695;BME280;4690;52.422;13.486;2022-09-06T06:48:36;101812.13;;;20.10;42.07
9695;BME280;4690;52.422;13.486;2022-09-06T06:51:05;101818.66;;;20.26;41.64
9695;BME280;4690;52.422;13.486;2022-09-06T06:53:31;101803.13;;;20.35;41.54
9695;BME280;4690;52.422;13.486;2022-09-06T06:55:57;101808.34;;;20.53;41.44
9695;BME280;4690;52.422;13.486;2022-09-06T06:58:24;101801.69;;;20.59;39.99
9695;BME280;4690;52.422;13.486;2022-09-06T07:00:50;101809.38;;;20.52;40.17
9695;BME280;4690;52.422;13.486;2022-09-06T07:03:15;101805.09;;;20.34;40.87
9695;BME280;4690;52.422;13.486;2022-09-06T07:05:41;101802.59;;;20.33;40.18
9695;BME280;4690;52.422;13.486;2022-09-06T07:08:12;101795.84;;;20.61;40.86
9695;BME280;4690;52.422;13.486;2022-09-06T07:10:38;101793.28;;;21.02;41.52
9695;BME280;4690;52.422;13.486;2022-09-06T07:13:04;101800.03;;;21.16;39.56
9695;BME280;4690;52.422;13.486;2022-09-06T07:15:30;101803.13;;;21.25;39.46
9695;BME280;4690;52.422;13.486;2022-09-06T07:17:56;101808.25;;;21.38;39.32
9695;BME280;4690;52.422;13.486;2022-09-06T07:20:23;101801.06;;;21.63;38.93
9695;BME280;4690;52.422;13.486;2022-09-06T07:23:04;101806.41;;;21.80;38.73
9695;BME280;4690;52.422;13.486;2022-09-06T07:25:31;101806.91;;;21.61;38.48
9695;BME280;4690;52.422;13.486;2022-09-06T07:28:03;101812.50;;;21.66;39.30
9695;BME280;4690;52.422;13.486;2022-09-06T07:30:33;101818.63;;;21.58;38.72
9695;BME280;4690;52.422;13.486;2022-09-06T07:33:02;101809.16;;;21.69;38.95
9695;BME280;4690;52.422;13.486;2022-09-06T07:35:30;101801.38;;;21.77;38.86
9695;BME280;4690;52.422;13.486;2022-09-06T07:37:58;101813.34;;;21.67;39.58
9695;BME280;4690;52.422;13.486;2022-09-06T07:40:27;101810.25;;;21.58;39.76
9695;BME280;4690;52.422;13.486;2022-09-06T07:42:57;101815.28;;;21.66;39.68
9695;BME280;4690;52.422;13.486;2022-09-06T07:45:23;101815.56;;;21.60;39.59
9695;BME280;4690;52.422;13.486;2022-09-06T07:47:57;101820.00;;;21.51;39.41
9695;BME280;4690;52.422;13.486;2022-09-06T07:50:27;101814.16;;;21.67;40.21
9695;BME280;4690;52.422;13.486;2022-09-06T07:52:53;101811.44;;;21.83;40.26
9695;BME280;4690;52.422;13.486;2022-09-06T07:55:19;101806.41;;;21.80;40.95
9695;BME280;4690;52.422;13.486;2022-09-06T07:57:46;101807.75;;;21.62;40.50
9695;BME280;4690;52.422;13.486;2022-09-06T08:00:12;101809.66;;;21.51;39.99
9695;BME280;4690;52.422;13.486;2022-09-06T08:02:38;101812.09;;;21.32;41.28
9695;BME280;4690;52.422;13.486;2022-09-06T08:05:05;101800.91;;;21.27;41.19
9695;BME280;4690;52.422;13.486;2022-09-06T08:07:31;101809.53;;;21.25;41.58
9695;BME280;4690;52.422;13.486;2022-09-06T08:09:57;101793.38;;;21.22;40.89
9695;BME280;4690;52.422;13.486;2022-09-06T08:12:22;101791.19;;;21.35;41.48
9695;BME280;4690;52.422;13.486;2022-09-06T08:14:49;101805.34;;;21.23;41.57
9695;BME280;4690;52.422;13.486;2022-09-06T08:17:15;101809.84;;;21.24;42.10
9695;BME280;4690;52.422;13.486;2022-09-06T08:19:41;101803.72;;;21.32;41.59
9695;BME280;4690;52.422;13.486;2022-09-06T08:22:06;101800.13;;;21.32;44.09
9695;BME280;4690;52.422;13.486;2022-09-06T08:24:32;101825.41;;;21.15;42.07
9695;BME280;4690;52.422;13.486;2022-09-06T08:27:01;101819.25;;;21.13;42.24
9695;BME280;4690;52.422;13.486;2022-09-06T08:29:27;101821.69;;;20.99;42.63
9695;BME280;4690;52.422;13.486;2022-09-06T08:31:52;101821.53;;;21.21;44.19
9695;BME280;4690;52.422;13.486;2022-09-06T08:34:18;101821.56;;;21.26;42.76
9695;BME280;4690;52.422;13.486;2022-09-06T08:36:44;101818.47;;;21.27;42.52
9695;BME280;4690;52.422;13.486;2022-09-06T08:39:10;101810.75;;;21.45;42.43
9695;BME280;4690;52.422;13.486;2022-09-06T08:42:01;101807.34;;;21.33;41.95
9695;BME280;4690;52.422;13.486;2022-09-06T08:44:50;101803.81;;;21.53;41.42
9695;BME280;4690;52.422;13.486;2022-09-06T08:47:19;101797.38;;;21.42;42.03
9695;BME280;4690;52.422;13.486;2022-09-06T08:49:59;101788.13;;;21.36;42.28
9695;BME280;4690;52.422;13.486;2022-09-06T08:56:09;101786.28;;;21.73;41.26
9695;BME280;4690;52.422;13.486;2022-09-06T08:59:12;101783.78;;;22.02;41.96
9695;BME280;4690;52.422;13.486;2022-09-06T09:02:09;101791.38;;;22.47;41.08
9695;BME280;4690;52.422;13.486;2022-09-06T09:04:42;101790.19;;;22.69;40.69
9695;BME280;4690;52.422;13.486;2022-09-06T09:10:20;101780.38;;;22.87;40.56
9695;BME280;4690;52.422;13.486;2022-09-06T09:12:49;101773.94;;;22.86;39.56
9695;BME280;4690;52.422;13.486;2022-09-06T09:15:18;101774.03;;;22.50;40.33
9695;BME280;4690;52.422;13.486;2022-09-06T09:17:48;101769.31;;;22.30;40.52
9695;BME280;4690;52.422;13.486;2022-09-06T09:20:15;101766.81;;;22.29;41.26
9695;BME280;4690;52.422;13.486;2022-09-06T09:22:42;101752.84;;;22.34;43.06
9695;BME280;4690;52.422;13.486;2022-09-06T09:25:18;101761.75;;;22.41;41.68
9695;BME280;4690;52.422;13.486;2022-09-06T09:27:46;101748.91;;;22.30;41.99
9695;BME280;4690;52.422;13.486;2022-09-06T09:30:12;101753.41;;;22.21;41.90
9695;BME280;4690;52.422;13.486;2022-09-06T09:32:45;101761.75;;;22.41;41.99
9695;BME280;4690;52.422;13.486;2022-09-06T09:35:33;101748.91;;;22.50;42.35
9695;BME280;4690;52.422;13.486;2022-09-06T09:38:19;101753.63;;;22.55;42.48
9695;BME280;4690;52.422;13.486;2022-09-06T09:40:53;101745.22;;;22.70;42.91
9695;BME280;4690;52.422;13.486;2022-09-06T09:43:33;101761.44;;;22.63;41.40
9695;BME280;4690;52.422;13.486;2022-09-06T09:46:13;101741.59;;;22.70;41.88
9695;BME280;4690;52.422;13.486;2022-09-06T09:48:43;101740.13;;;22.82;42.09
9695;BME280;4690;52.422;13.486;2022-09-06T09:51:24;101719.16;;;22.85;40.90
9695;BME280;4690;52.422;13.486;2022-09-06T09:53:57;101722.19;;;22.94;41.72
9695;BME280;4690;52.422;13.486;2022-09-06T09:59:42;101723.75;;;22.55;41.45
9695;BME280;4690;52.422;13.486;2022-09-06T10:02:36;101716.53;;;22.34;41.41
9695;BME280;4690;52.422;13.486;2022-09-06T10:05:19;101715.94;;;22.47;42.21
9695;BME280;4690;52.422;13.486;2022-09-06T10:07:47;101710.06;;;22.49;42.34
9695;BME280;4690;52.422;13.486;2022-09-06T10:10:21;101719.53;;;22.58;41.76
9695;BME280;4690;52.422;13.486;2022-09-06T10:12:48;101720.63;;;22.72;41.71
9695;BME280;4690;52.422;13.486;2022-09-06T10:15:39;101715.88;;;22.68;42.09
9695;BME280;4690;52.422;13.486;2022-09-06T10:18:14;101708.91;;;22.65;42.09
9695;BME280;4690;52.422;13.486;2022-09-06T10:20:56;101725.91;;;22.74;41.79
9695;BME280;4690;52.422;13.486;2022-09-06T10:26:42;101723.94;;;22.74;40.99
9695;BME280;4690;52.422;13.486;2022-09-06T10:29:12;101712.53;;;22.60;41.35
9695;BME280;4690;52.422;13.486;2022-09-06T10:40:18;101702.50;;;22.54;41.10
9695;BME280;4690;52.422;13.486;2022-09-06T10:42:51;101691.91;;;22.51;41.57
9695;BME280;4690;52.422;13.486;2022-09-06T10:48:14;101687.63;;;22.69;41.07
9695;BME280;4690;52.422;13.486;2022-09-06T10:50:57;101681.44;;;22.77;41.23
9695;BME280;4690;52.422;13.486;2022-09-06T10:53:50;101677.00;;;22.76;41.03
9695;BME280;4690;52.422;13.486;2022-09-06T10:56:36;101679.44;;;22.88;41.22
9695;BME280;4690;52.422;13.486;2022-09-06T11:05:37;101678.66;;;23.37;40.90
9695;BME280;4690;52.422;13.486;2022-09-06T11:08:29;101677.66;;;23.57;40.03
9695;BME280;4690;52.422;13.486;2022-09-06T11:11:12;101682.34;;;23.62;39.50
9695;BME280;4690;52.422;13.486;2022-09-06T11:13:40;101684.53;;;23.75;39.70
9695;BME280;4690;52.422;13.486;2022-09-06T11:16:35;101680.56;;;23.81;39.40
9695;BME280;4690;52.422;13.486;2022-09-06T11:19:30;101673.59;;;24.08;39.89
9695;BME280;4690;52.422;13.486;2022-09-06T11:22:31;101680.34;;;24.31;37.80
9695;BME280;4690;52.422;13.486;2022-09-06T11:28:33;101669.25;;;24.50;37.98
9695;BME280;4690;52.422;13.486;2022-09-06T11:31:01;101665.00;;;24.52;38.39
9695;BME280;4690;52.422;13.486;2022-09-06T11:33:32;101666.78;;;24.43;38.13
9695;BME280;4690;52.422;13.486;2022-09-06T11:36:35;101669.47;;;24.24;38.64
9695;BME280;4690;52.422;13.486;2022-09-06T11:39:06;101656.06;;;23.97;39.12
9695;BME280;4690;52.422;13.486;2022-09-06T11:41:39;101659.19;;;23.90;38.75
9695;BME280;4690;52.422;13.486;2022-09-06T11:44:08;101662.25;;;23.94;38.90
9695;BME280;4690;52.422;13.486;2022-09-06T11:49:06;101655.47;;;23.66;39.86
9695;BME280;4690;52.422;13.486;2022-09-06T11:56:54;101651.25;;;23.68;39.38
9695;BME280;4690;52.422;13.486;2022-09-06T12:02:33;101661.31;;;23.75;39.96
9695;BME280;4690;52.422;13.486;2022-09-06T12:07:30;101650.78;;;23.90;39.91
9695;BME280;4690;52.422;13.486;2022-09-06T12:09:56;101645.09;;;24.01;39.65
9695;BME280;4690;52.422;13.486;2022-09-06T12:12:48;101639.03;;;23.93;39.27
9695;BME280;4690;52.422;13.486;2022-09-06T12:15:51;101645.44;;;23.94;39.10
9695;BME280;4690;52.422;13.486;2022-09-06T12:21:40;101646.31;;;23.89;39.05
9695;BME280;4690;52.422;13.486;2022-09-06T12:27:37;101638.72;;;23.95;39.69
9695;BME280;4690;52.422;13.486;2022-09-06T12:33:04;101623.88;;;23.94;39.18
9695;BME280;4690;52.422;13.486;2022-09-06T12:35:32;101632.22;;;24.00;39.83
9695;BME280;4690;52.422;13.486;2022-09-06T12:38:01;101634.91;;;24.10;39.76
9695;BME280;4690;52.422;13.486;2022-09-06T12:40:36;101629.63;;;24.08;39.43
9695;BME280;4690;52.422;13.486;2022-09-06T12:43:04;101619.78;;;24.11;38.67
9695;BME280;4690;52.422;13.486;2022-09-06T12:45:30;101621.41;;;24.17;39.86
9695;BME280;4690;52.422;13.486;2022-09-06T12:48:33;101614.94;;;24.41;38.56
9695;BME280;4690;52.422;13.486;2022-09-06T12:51:06;101615.47;;;24.48;38.73
9695;BME280;4690;52.422;13.486;2022-09-06T12:53:33;101604.53;;;24.46;38.72
9695;BME280;4690;52.422;13.486;2022-09-06T12:56:22;101616.78;;;24.55;38.57
9695;BME280;4690;52.422;13.486;2022-09-06T12:58:48;101600.78;;;24.56;38.22
9695;BME280;4690;52.422;13.486;2022-09-06T13:01:15;101598.59;;;24.72;38.40
9695;BME280;4690;52.422;13.486;2022-09-06T13:03:55;101595.03;;;24.85;38.27
9695;BME280;4690;52.422;13.486;2022-09-06T13:06:29;101594.59;;;24.97;38.35
9695;BME280;4690;52.422;13.486;2022-09-06T13:08:58;101590.66;;;25.17;37.52
9695;BME280;4690;52.422;13.486;2022-09-06T13:11:36;101592.13;;;25.47;38.26
9695;BME280;4690;52.422;13.486;2022-09-06T13:14:17;101584.88;;;25.46;37.40
9695;BME280;4690;52.422;13.486;2022-09-06T13:16:50;101586.94;;;25.21;37.03
9695;BME280;4690;52.422;13.486;2022-09-06T13:19:38;101579.81;;;24.91;37.98
9695;BME280;4690;52.422;13.486;2022-09-06T13:22:08;101590.56;;;25.03;38.25
9695;BME280;4690;52.422;13.486;2022-09-06T13:27:26;101567.41;;;24.78;38.67
9695;BME280;4690;52.422;13.486;2022-09-06T13:30:00;101570.88;;;24.89;38.28
9695;BME280;4690;52.422;13.486;2022-09-06T13:32:28;101576.09;;;24.96;38.46
9695;BME280;4690;52.422;13.486;2022-09-06T13:34:54;101576.41;;;24.94;38.82
9695;BME280;4690;52.422;13.486;2022-09-06T13:37:32;101573.31;;;24.96;37.98
9695;BME280;4690;52.422;13.486;2022-09-06T13:40:00;101573.22;;;25.01;38.38
9695;BME280;4690;52.422;13.486;2022-09-06T13:42:33;101576.50;;;24.89;38.18
9695;BME280;4690;52.422;13.486;2022-09-06T13:45:28;101564.59;;;24.78;38.71
9695;BME280;4690;52.422;13.486;2022-09-06T13:47:55;101574.44;;;24.95;38.78
9695;BME280;4690;52.422;13.486;2022-09-06T13:50:23;101569.59;;;25.00;38.55
9695;BME280;4690;52.422;13.486;2022-09-06T13:52:50;101575.03;;;24.92;38.64
9695;BME280;4690;52.422;13.486;2022-09-06T13:55:16;101581.19;;;24.94;39.05
9695;BME280;4690;52.422;13.486;2022-09-06T13:57:44;101571.09;;;24.93;37.94
9695;BME280;4690;52.422;13.486;2022-09-06T14:00:11;101576.31;;;24.99;38.53
9695;BME280;4690;52.422;13.486;2022-09-06T14:02:40;101580.97;;;24.90;38.07
9695;BME280;4690;52.422;13.486;2022-09-06T14:05:07;101581.19;;;24.94;37.79
9695;BME280;4690;52.422;13.486;2022-09-06T14:07:32;101578.28;;;24.80;38.31
9695;BME280;4690;52.422;13.486;2022-09-06T14:09:58;101579.59;;;24.88;38.23
9695;BME280;4690;52.422;13.486;2022-09-06T14:12:26;101575.66;;;24.70;38.52
9695;BME280;4690;52.422;13.486;2022-09-06T14:14:52;101578.03;;;24.57;39.32
9695;BME280;4690;52.422;13.486;2022-09-06T14:17:18;101580.91;;;24.52;38.62
9695;BME280;4690;52.422;13.486;2022-09-06T14:19:44;101576.88;;;24.39;38.78
9695;BME280;4690;52.422;13.486;2022-09-06T14:22:11;101575.25;;;24.33;39.17
9695;BME280;4690;52.422;13.486;2022-09-06T14:24:36;101573.28;;;24.34;39.29
9695;BME280;4690;52.422;13.486;2022-09-06T14:27:03;101570.59;;;24.24;39.48
9695;BME280;4690;52.422;13.486;2022-09-06T14:29:32;101565.38;;;24.17;39.55
9695;BME280;4690;52.422;13.486;2022-09-06T14:31:59;101570.25;;;24.30;39.24
9695;BME280;4690;52.422;13.486;2022-09-06T14:34:25;101564.88;;;24.34;39.21
9695;BME280;4690;52.422;13.486;2022-09-06T14:36:52;101555.06;;;24.36;39.54
9695;BME280;4690;52.422;13.486;2022-09-06T14:39:18;101555.47;;;24.49;39.19
9695;BME280;4690;52.422;13.486;2022-09-06T14:41:44;101557.00;;;24.60;39.65
9695;BME280;4690;52.422;13.486;2022-09-06T14:44:10;101554.06;;;24.70;39.03
9695;BME280;4690;52.422;13.486;2022-09-06T14:46:36;101544.13;;;24.59;39.03
9695;BME280;4690;52.422;13.486;2022-09-06T14:49:05;101547.91;;;24.68;38.99
9695;BME280;4690;52.422;13.486;2022-09-06T14:51:33;101552.47;;;24.64;39.39
9695;BME280;4690;52.422;13.486;2022-09-06T14:54:04;101548.38;;;24.56;38.86
9695;BME280;4690;52.422;13.486;2022-09-06T14:56:31;101547.47;;;24.61;39.28
9695;BME280;4690;52.422;13.486;2022-09-06T14:58:57;101544.88;;;24.65;38.61
9695;BME280;4690;52.422;13.486;2022-09-06T15:01:27;101541.94;;;24.56;39.00